« Back
NWS Peachtree City, Ga » Text Product » ATL Terminal Aerodrome Forecast


Printer-friendly Version
Current Version              Previous Versions:   1  2  3  4  5  6  7  8  9  

Terminal Aerodrome Forecast

403
FTUS42 KFFC 291739
TAFATL
TAF
KATL 291739Z 2918/3024 33005KT P6SM SCT250
     FM292000 24006KT P6SM FEW080
     FM300100 19003KT P6SM FEW250
     FM301000 15003KT P6SM SCT250
     FM301500 19006KT P6SM BKN035 PROB30 3018/3024 4SM -TSRA BR
      BKN025CB=

USA.gov is the U.S. government's official web portal to all federal, state and local government web resources and services.